Tatsuharu Maru — JD3984 — position and weather

sailwx.info

Track history (hours):
 
Tides and Currents Weather Stations Pressure Air Temp Water Temp Dewpoint Dewpoint Depression Visibility Wind Speed Wind Dir Waves Ship Positions

Tatsuharu Maru

Last reported at 2018-Jul-23 10:17 UTC. Time now 2018-Jul-23 11:45 UTC.
Position N 33°58' E 135°01'.

Length 75 m; draft 4.2 m.

Type: Cargo ship. MMSI: 431007656.

Date/timePositionNaut miles runAvg speedWind from/ knotsBaromVisibWave heightAir tempDewpointWater temp
2018-Jul-23 10:17N 33°58' E 135°01'310.7
2018-Jul-23 10:00N 34°01' E 135°01'510.4
2018-Jul-23 09:29N 34°06' E 134°60'510.3
2018-Jul-23 09:00N 34°11' E 134°59'510.0
2018-Jul-23 08:30N 34°16' E 134°59'4 9.0
2018-Jul-23 08:00N 34°21' E 134°59'510.4
2018-Jul-23 07:30N 34°26' E 135°01'510.4
2018-Jul-23 07:00N 34°31' E 135°02'5 9.1
2018-Jul-23 06:30N 34°35' E 135°03'7 9.1
2018-Jul-23 05:42N 34°37' E 134°54'210.5
2018-Jul-23 05:29N 34°38' E 134°52'610.8
2018-Jul-23 04:58N 34°43' E 134°48'1 0.1
2018-Jul-22 20:10N 34°42' E 134°49'1 0.7
2018-Jul-22 18:52N 34°42' E 134°50'0 0.0
2018-Jul-22 18:30N 34°42' E 134°50'0 0.0
2018-Jul-22 15:30N 34°42' E 134°50'6 9.2
2018-Jul-22 14:49N 34°37' E 134°55'610.2
2018-Jul-22 14:13N 34°37' E 135°02'210.2
2018-Jul-22 14:01N 34°35' E 135°04'611.1
2018-Jul-22 13:30N 34°30' E 135°04'611.9
2018-Jul-22 13:00N 34°24' E 135°02'612.6
2018-Jul-22 12:31N 34°18' E 134°60'611.7
2018-Jul-22 12:01N 34°12' E 134°60'612.4
2018-Jul-22 11:31N 34°06' E 135°00'612.6
2018-Jul-22 11:00N 33°60' E 135°01'712.1
2018-Jul-22 10:23N 33°53' E 135°02'230 9.6
2018-Jul-21 10:28N 35°01' E 139°28'510.0
2018-Jul-21 10:01N 35°04' E 139°33'510.0
2018-Jul-21 09:31N 35°06' E 139°38'510.5
2018-Jul-21 09:00N 35°10' E 139°43'5 9.9
2018-Jul-21 08:30N 35°14' E 139°46'510.9
2018-Jul-21 08:00N 35°19' E 139°43'5 9.7
2018-Jul-21 07:31N 35°24' E 139°43'611.3
2018-Jul-21 07:00N 35°27' E 139°48'611.0
2018-Jul-21 06:30N 35°31' E 139°53'6 0.7
2018-Jul-20 22:12N 35°35' E 139°58'1 1.9
2018-Jul-20 21:26N 35°33' E 139°57'3 7.0
2018-Jul-20 21:00N 35°31' E 139°55'510.6
2018-Jul-20 20:30N 35°27' E 139°50'611.0
2018-Jul-20 20:00N 35°23' E 139°46'511.1
2018-Jul-20 19:30N 35°18' E 139°45'611.1
2018-Jul-20 19:00N 35°13' E 139°47'612.0
2018-Jul-20 18:30N 35°07' E 139°46'612.0
2018-Jul-20 18:00N 35°03' E 139°40'612.2
2018-Jul-20 17:30N 34°59' E 139°34'23410.1
2018-Jul-19 18:21N 33°53' E 135°02'511.6
2018-Jul-19 17:57N 33°58' E 135°01'511.7
2018-Jul-19 17:30N 34°03' E 135°00'711.5
2018-Jul-19 16:55N 34°10' E 134°59'511.0
2018-Jul-19 16:30N 34°14' E 134°59'5 9.8
2018-Jul-19 16:00N 34°19' E 134°59'511.0
2018-Jul-19 15:30N 34°24' E 135°00'510.5
2018-Jul-19 15:00N 34°30' E 135°02'10 7.3
2018-Jul-19 13:40N 34°37' E 134°54'410.7
2018-Jul-19 13:17N 34°40' E 134°51'3 0.2
2018-Jul-18 20:22N 34°43' E 134°48'2 0.4
2018-Jul-18 16:09N 34°41' E 134°49'211.5
2018-Jul-18 15:58N 34°39' E 134°50'612.7
2018-Jul-18 15:30N 34°38' E 134°57'714.0
2018-Jul-18 15:00N 34°35' E 135°05'612.8
2018-Jul-18 14:30N 34°29' E 135°04'1312.7
2018-Jul-18 13:31N 34°17' E 134°59'713.0
2018-Jul-18 13:00N 34°10' E 135°00'612.9
2018-Jul-18 12:30N 34°04' E 135°01'712.3
2018-Jul-18 11:55N 33°57' E 135°02'231 9.8
2018-Jul-17 12:15N 35°02' E 139°30'3 9.8
2018-Jul-17 12:00N 35°04' E 139°33'611.4
2018-Jul-17 11:30N 35°06' E 139°39'510.5
2018-Jul-17 11:00N 35°10' E 139°44'510.1
2018-Jul-17 10:28N 35°15' E 139°46'510.4
2018-Jul-17 10:00N 35°19' E 139°43'5 9.8
2018-Jul-17 09:30N 35°24' E 139°43'510.5
2018-Jul-17 09:00N 35°27' E 139°47'510.5
2018-Jul-17 08:30N 35°31' E 139°52'11 2.0
2018-Jul-17 03:20N 35°41' E 139°58'7 0.2
2018-Jul-15 19:02N 35°34' E 139°56'111.9
2018-Jul-15 18:57N 35°33' E 139°55'512.0
2018-Jul-15 18:30N 35°29' E 139°52'612.0
2018-Jul-15 18:01N 35°24' E 139°47'612.0
2018-Jul-15 17:31N 35°19' E 139°44'611.1
2018-Jul-15 16:59N 35°14' E 139°47'511.4
2018-Jul-15 16:30N 35°08' E 139°46'510.7
2018-Jul-15 16:00N 35°03' E 139°43'510.7
2018-Jul-15 15:30N 34°60' E 139°38'237 9.9
2018-Jul-14 15:30N 33°53' E 135°02'711.8
2018-Jul-14 14:55N 33°60' E 135°01'511.4
2018-Jul-14 14:30N 34°04' E 135°00'1010.2
2018-Jul-14 13:30N 34°14' E 134°59'4 8.7
2018-Jul-14 13:00N 34°19' E 134°58'4 7.4
2018-Jul-14 12:30N 34°22' E 135°00'5 9.7
2018-Jul-14 12:00N 34°27' E 135°01'5 9.2
2018-Jul-14 11:31N 34°31' E 135°02'4 7.7
2018-Jul-14 11:01N 34°35' E 135°03'3 5.5
2018-Jul-14 10:31N 34°37' E 135°00'5 8.2
2018-Jul-14 09:56N 34°37' E 134°55'4 8.7
2018-Jul-14 09:28N 34°39' E 134°51'  
Track history (hours):
 
Tides and Currents Weather Stations Pressure Air Temp Water Temp Dewpoint Dewpoint Depression Visibility Wind Speed Wind Dir Waves Ship Positions

Tatsuharu Maru

Last reported at 2018-Jul-23 10:17 UTC. Time now 2018-Jul-23 11:45 UTC.
Position N 33°58' E 135°01'.

Length 75 m; draft 4.2 m.

Type: Cargo ship. MMSI: 431007656.

Date/timePositionNaut miles runAvg speedWind from/ knotsBaromVisibWave heightAir tempDewpointWater temp
2018-Jul-23 10:17N 33°58' E 135°01'310.7
2018-Jul-23 10:00N 34°01' E 135°01'510.4
2018-Jul-23 09:29N 34°06' E 134°60'510.3
2018-Jul-23 09:00N 34°11' E 134°59'510.0
2018-Jul-23 08:30N 34°16' E 134°59'4 9.0
2018-Jul-23 08:00N 34°21' E 134°59'510.4
2018-Jul-23 07:30N 34°26' E 135°01'510.4
2018-Jul-23 07:00N 34°31' E 135°02'5 9.1
2018-Jul-23 06:30N 34°35' E 135°03'7 9.1
2018-Jul-23 05:42N 34°37' E 134°54'210.5
2018-Jul-23 05:29N 34°38' E 134°52'610.8
2018-Jul-23 04:58N 34°43' E 134°48'1 0.1
2018-Jul-22 20:10N 34°42' E 134°49'1 0.7
2018-Jul-22 18:52N 34°42' E 134°50'0 0.0
2018-Jul-22 18:30N 34°42' E 134°50'0 0.0
2018-Jul-22 15:30N 34°42' E 134°50'6 9.2
2018-Jul-22 14:49N 34°37' E 134°55'610.2
2018-Jul-22 14:13N 34°37' E 135°02'210.2
2018-Jul-22 14:01N 34°35' E 135°04'611.1
2018-Jul-22 13:30N 34°30' E 135°04'611.9
2018-Jul-22 13:00N 34°24' E 135°02'612.6
2018-Jul-22 12:31N 34°18' E 134°60'611.7
2018-Jul-22 12:01N 34°12' E 134°60'612.4
2018-Jul-22 11:31N 34°06' E 135°00'612.6
2018-Jul-22 11:00N 33°60' E 135°01'712.1
2018-Jul-22 10:23N 33°53' E 135°02'230 9.6
2018-Jul-21 10:28N 35°01' E 139°28'510.0
2018-Jul-21 10:01N 35°04' E 139°33'510.0
2018-Jul-21 09:31N 35°06' E 139°38'510.5
2018-Jul-21 09:00N 35°10' E 139°43'5 9.9
2018-Jul-21 08:30N 35°14' E 139°46'510.9
2018-Jul-21 08:00N 35°19' E 139°43'5 9.7
2018-Jul-21 07:31N 35°24' E 139°43'611.3
2018-Jul-21 07:00N 35°27' E 139°48'611.0
2018-Jul-21 06:30N 35°31' E 139°53'6 0.7
2018-Jul-20 22:12N 35°35' E 139°58'1 1.9
2018-Jul-20 21:26N 35°33' E 139°57'3 7.0
2018-Jul-20 21:00N 35°31' E 139°55'510.6
2018-Jul-20 20:30N 35°27' E 139°50'611.0
2018-Jul-20 20:00N 35°23' E 139°46'511.1
2018-Jul-20 19:30N 35°18' E 139°45'611.1
2018-Jul-20 19:00N 35°13' E 139°47'612.0
2018-Jul-20 18:30N 35°07' E 139°46'612.0
2018-Jul-20 18:00N 35°03' E 139°40'612.2
2018-Jul-20 17:30N 34°59' E 139°34'23410.1
2018-Jul-19 18:21N 33°53' E 135°02'511.6
2018-Jul-19 17:57N 33°58' E 135°01'511.7
2018-Jul-19 17:30N 34°03' E 135°00'711.5
2018-Jul-19 16:55N 34°10' E 134°59'511.0
2018-Jul-19 16:30N 34°14' E 134°59'5 9.8
2018-Jul-19 16:00N 34°19' E 134°59'511.0
2018-Jul-19 15:30N 34°24' E 135°00'510.5
2018-Jul-19 15:00N 34°30' E 135°02'10 7.3
2018-Jul-19 13:40N 34°37' E 134°54'410.7
2018-Jul-19 13:17N 34°40' E 134°51'3 0.2
2018-Jul-18 20:22N 34°43' E 134°48'2 0.4
2018-Jul-18 16:09N 34°41' E 134°49'211.5
2018-Jul-18 15:58N 34°39' E 134°50'612.7
2018-Jul-18 15:30N 34°38' E 134°57'714.0
2018-Jul-18 15:00N 34°35' E 135°05'612.8
2018-Jul-18 14:30N 34°29' E 135°04'1312.7
2018-Jul-18 13:31N 34°17' E 134°59'713.0
2018-Jul-18 13:00N 34°10' E 135°00'612.9
2018-Jul-18 12:30N 34°04' E 135°01'712.3
2018-Jul-18 11:55N 33°57' E 135°02'231 9.8
2018-Jul-17 12:15N 35°02' E 139°30'3 9.8
2018-Jul-17 12:00N 35°04' E 139°33'611.4
2018-Jul-17 11:30N 35°06' E 139°39'510.5
2018-Jul-17 11:00N 35°10' E 139°44'510.1
2018-Jul-17 10:28N 35°15' E 139°46'510.4
2018-Jul-17 10:00N 35°19' E 139°43'5 9.8
2018-Jul-17 09:30N 35°24' E 139°43'510.5
2018-Jul-17 09:00N 35°27' E 139°47'510.5
2018-Jul-17 08:30N 35°31' E 139°52'11 2.0
2018-Jul-17 03:20N 35°41' E 139°58'7 0.2
2018-Jul-15 19:02N 35°34' E 139°56'111.9
2018-Jul-15 18:57N 35°33' E 139°55'512.0
2018-Jul-15 18:30N 35°29' E 139°52'612.0
2018-Jul-15 18:01N 35°24' E 139°47'612.0
2018-Jul-15 17:31N 35°19' E 139°44'611.1
2018-Jul-15 16:59N 35°14' E 139°47'511.4
2018-Jul-15 16:30N 35°08' E 139°46'510.7
2018-Jul-15 16:00N 35°03' E 139°43'510.7
2018-Jul-15 15:30N 34°60' E 139°38'237 9.9
2018-Jul-14 15:30N 33°53' E 135°02'711.8
2018-Jul-14 14:55N 33°60' E 135°01'511.4
2018-Jul-14 14:30N 34°04' E 135°00'1010.2
2018-Jul-14 13:30N 34°14' E 134°59'4 8.7
2018-Jul-14 13:00N 34°19' E 134°58'4 7.4
2018-Jul-14 12:30N 34°22' E 135°00'5 9.7
2018-Jul-14 12:00N 34°27' E 135°01'5 9.2
2018-Jul-14 11:31N 34°31' E 135°02'4 7.7
2018-Jul-14 11:01N 34°35' E 135°03'3 5.5
2018-Jul-14 10:31N 34°37' E 135°00'5 8.2
2018-Jul-14 09:56N 34°37' E 134°55'4 8.7
2018-Jul-14 09:28N 34°39' E 134°51'  

Dump ship's entire track history